Terminal Aerodrome Forecast
Issued by NWS

Home | Current Version | Previous Version | Text Only | Print | Product List | Glossary On
Versions: 1 2 3 4 5 6 7 8 9 10 11 12 13 14 15 16 17
000
FTUS41 KRNK 280520
TAFLWB
TAF
KLWB 280520Z 2806/0106 VRB03KT P6SM BKN080
     FM280900 00000KT P6SM SCT100
     FM281900 16005KT 6SM -SHRA BKN080
     FM282200 20009KT P6SM OVC025=

USA.gov is the U.S. government's official web portal to all federal, state and local government web resources and services.